sensor_id;sensor_type;location;lat;lon;timestamp;P1;durP1;ratioP1;P2;durP2;ratioP2
68108;SDS011;54893;49.864;19.084;2023-04-30T00:00:33;34.30;;;17.80;;
68108;SDS011;54893;49.864;19.084;2023-04-30T00:05:34;38.00;;;18.13;;
68108;SDS011;54893;49.864;19.084;2023-04-30T00:10:35;38.90;;;17.43;;
68108;SDS011;54893;49.864;19.084;2023-04-30T00:15:35;48.23;;;21.33;;
68108;SDS011;54893;49.864;19.084;2023-04-30T00:20:36;43.73;;;20.17;;
68108;SDS011;54893;49.864;19.084;2023-04-30T00:25:36;46.57;;;19.67;;
68108;SDS011;54893;49.864;19.084;2023-04-30T00:30:36;51.83;;;22.17;;
68108;SDS011;54893;49.864;19.084;2023-04-30T00:35:37;57.00;;;24.30;;
68108;SDS011;54893;49.864;19.084;2023-04-30T00:40:37;53.43;;;22.67;;
68108;SDS011;54893;49.864;19.084;2023-04-30T00:45:40;45.53;;;17.63;;
68108;SDS011;54893;49.864;19.084;2023-04-30T00:50:41;46.70;;;16.20;;
68108;SDS011;54893;49.864;19.084;2023-04-30T00:55:43;59.65;;;25.05;;
68108;SDS011;54893;49.864;19.084;2023-04-30T01:00:44;70.00;;;26.60;;
68108;SDS011;54893;49.864;19.084;2023-04-30T01:05:46;67.85;;;27.02;;
68108;SDS011;54893;49.864;19.084;2023-04-30T01:10:53;71.70;;;32.77;;
68108;SDS011;54893;49.864;19.084;2023-04-30T01:21:18;71.13;;;26.23;;
68108;SDS011;54893;49.864;19.084;2023-04-30T01:26:28;76.28;;;26.02;;
68108;SDS011;54893;49.864;19.084;2023-04-30T01:31:45;76.50;;;27.67;;
68108;SDS011;54893;49.864;19.084;2023-04-30T01:52:41;90.32;;;36.70;;
68108;SDS011;54893;49.864;19.084;2023-04-30T01:57:49;89.28;;;33.17;;
68108;SDS011;54893;49.864;19.084;2023-04-30T02:02:56;83.50;;;30.03;;
68108;SDS011;54893;49.864;19.084;2023-04-30T02:07:56;83.03;;;32.15;;
68108;SDS011;54893;49.864;19.084;2023-04-30T02:12:57;65.07;;;23.73;;
68108;SDS011;54893;49.864;19.084;2023-04-30T02:17:57;71.17;;;32.07;;
68108;SDS011;54893;49.864;19.084;2023-04-30T02:22:58;68.70;;;26.57;;
68108;SDS011;54893;49.864;19.084;2023-04-30T02:27:58;66.10;;;26.30;;
68108;SDS011;54893;49.864;19.084;2023-04-30T02:32:58;61.87;;;23.43;;
68108;SDS011;54893;49.864;19.084;2023-04-30T02:37:59;58.53;;;23.07;;
68108;SDS011;54893;49.864;19.084;2023-04-30T02:42:59;53.83;;;24.47;;
68108;SDS011;54893;49.864;19.084;2023-04-30T02:48:00;45.67;;;16.85;;
68108;SDS011;54893;49.864;19.084;2023-04-30T02:53:00;52.25;;;27.33;;
68108;SDS011;54893;49.864;19.084;2023-04-30T02:58:01;55.03;;;23.43;;
68108;SDS011;54893;49.864;19.084;2023-04-30T03:03:01;52.83;;;25.47;;
68108;SDS011;54893;49.864;19.084;2023-04-30T03:08:02;48.83;;;21.83;;
68108;SDS011;54893;49.864;19.084;2023-04-30T03:13:03;40.30;;;16.37;;
68108;SDS011;54893;49.864;19.084;2023-04-30T03:18:03;43.60;;;17.73;;
68108;SDS011;54893;49.864;19.084;2023-04-30T03:23:03;38.00;;;18.60;;
68108;SDS011;54893;49.864;19.084;2023-04-30T03:28:04;35.63;;;16.33;;
68108;SDS011;54893;49.864;19.084;2023-04-30T03:33:04;31.20;;;14.17;;
68108;SDS011;54893;49.864;19.084;2023-04-30T03:38:05;30.25;;;15.57;;
68108;SDS011;54893;49.864;19.084;2023-04-30T03:43:06;32.87;;;15.73;;
68108;SDS011;54893;49.864;19.084;2023-04-30T03:48:06;31.23;;;18.80;;
68108;SDS011;54893;49.864;19.084;2023-04-30T03:53:06;36.83;;;22.00;;
68108;SDS011;54893;49.864;19.084;2023-04-30T03:58:07;38.70;;;24.27;;
68108;SDS011;54893;49.864;19.084;2023-04-30T04:03:07;37.27;;;26.17;;
68108;SDS011;54893;49.864;19.084;2023-04-30T04:08:08;36.30;;;19.43;;
68108;SDS011;54893;49.864;19.084;2023-04-30T04:13:09;39.93;;;23.63;;
68108;SDS011;54893;49.864;19.084;2023-04-30T04:18:10;37.47;;;22.92;;
68108;SDS011;54893;49.864;19.084;2023-04-30T04:23:10;31.73;;;16.17;;
68108;SDS011;54893;49.864;19.084;2023-04-30T04:28:11;37.17;;;17.90;;
68108;SDS011;54893;49.864;19.084;2023-04-30T04:33:11;37.83;;;19.17;;
68108;SDS011;54893;49.864;19.084;2023-04-30T04:38:12;39.93;;;19.40;;
68108;SDS011;54893;49.864;19.084;2023-04-30T04:43:12;36.27;;;15.80;;
68108;SDS011;54893;49.864;19.084;2023-04-30T04:48:13;26.43;;;12.20;;
68108;SDS011;54893;49.864;19.084;2023-04-30T04:53:14;42.55;;;22.73;;
68108;SDS011;54893;49.864;19.084;2023-04-30T04:58:14;42.33;;;17.53;;
68108;SDS011;54893;49.864;19.084;2023-04-30T05:03:14;45.10;;;22.07;;
68108;SDS011;54893;49.864;19.084;2023-04-30T05:08:15;44.17;;;18.37;;
68108;SDS011;54893;49.864;19.084;2023-04-30T05:13:15;48.17;;;20.87;;
68108;SDS011;54893;49.864;19.084;2023-04-30T05:18:15;50.97;;;22.53;;
68108;SDS011;54893;49.864;19.084;2023-04-30T05:23:16;48.53;;;23.00;;
68108;SDS011;54893;49.864;19.084;2023-04-30T05:28:16;47.53;;;21.87;;
68108;SDS011;54893;49.864;19.084;2023-04-30T05:33:17;51.20;;;23.40;;
68108;SDS011;54893;49.864;19.084;2023-04-30T05:38:17;48.47;;;22.77;;
68108;SDS011;54893;49.864;19.084;2023-04-30T05:43:17;47.07;;;21.00;;
68108;SDS011;54893;49.864;19.084;2023-04-30T05:48:18;41.20;;;19.87;;
68108;SDS011;54893;49.864;19.084;2023-04-30T05:53:18;45.43;;;20.63;;
68108;SDS011;54893;49.864;19.084;2023-04-30T05:58:19;40.53;;;19.80;;
68108;SDS011;54893;49.864;19.084;2023-04-30T06:03:19;46.07;;;21.03;;
68108;SDS011;54893;49.864;19.084;2023-04-30T06:08:19;39.60;;;19.70;;
68108;SDS011;54893;49.864;19.084;2023-04-30T06:13:20;42.17;;;21.93;;
68108;SDS011;54893;49.864;19.084;2023-04-30T06:18:21;37.83;;;17.98;;
68108;SDS011;54893;49.864;19.084;2023-04-30T06:23:21;38.20;;;17.40;;
68108;SDS011;54893;49.864;19.084;2023-04-30T06:28:22;40.10;;;17.93;;
68108;SDS011;54893;49.864;19.084;2023-04-30T06:33:22;37.17;;;18.00;;
68108;SDS011;54893;49.864;19.084;2023-04-30T06:38:23;35.50;;;16.90;;
68108;SDS011;54893;49.864;19.084;2023-04-30T06:43:23;35.67;;;16.30;;
68108;SDS011;54893;49.864;19.084;2023-04-30T06:48:23;40.77;;;17.97;;
68108;SDS011;54893;49.864;19.084;2023-04-30T06:53:24;35.13;;;17.73;;
68108;SDS011;54893;49.864;19.084;2023-04-30T06:58:25;35.13;;;16.40;;
68108;SDS011;54893;49.864;19.084;2023-04-30T07:03:25;30.77;;;15.05;;
68108;SDS011;54893;49.864;19.084;2023-04-30T07:08:26;29.85;;;14.45;;
68108;SDS011;54893;49.864;19.084;2023-04-30T07:13:26;28.45;;;14.23;;
68108;SDS011;54893;49.864;19.084;2023-04-30T07:18:26;27.37;;;14.10;;
68108;SDS011;54893;49.864;19.084;2023-04-30T07:23:27;31.13;;;14.77;;
68108;SDS011;54893;49.864;19.084;2023-04-30T07:28:27;25.30;;;11.70;;
68108;SDS011;54893;49.864;19.084;2023-04-30T07:33:28;29.75;;;15.25;;
68108;SDS011;54893;49.864;19.084;2023-04-30T07:38:29;27.63;;;14.20;;
68108;SDS011;54893;49.864;19.084;2023-04-30T07:43:29;23.67;;;12.40;;
68108;SDS011;54893;49.864;19.084;2023-04-30T07:48:30;24.53;;;13.23;;
68108;SDS011;54893;49.864;19.084;2023-04-30T07:53:30;22.60;;;12.00;;
68108;SDS011;54893;49.864;19.084;2023-04-30T07:58:31;23.60;;;12.90;;
68108;SDS011;54893;49.864;19.084;2023-04-30T08:03:31;25.73;;;13.50;;
68108;SDS011;54893;49.864;19.084;2023-04-30T08:08:31;22.50;;;12.20;;
68108;SDS011;54893;49.864;19.084;2023-04-30T08:13:32;21.57;;;11.63;;
68108;SDS011;54893;49.864;19.084;2023-04-30T08:18:33;23.95;;;11.05;;
68108;SDS011;54893;49.864;19.084;2023-04-30T08:23:33;21.97;;;11.67;;
68108;SDS011;54893;49.864;19.084;2023-04-30T08:28:34;25.80;;;13.87;;
68108;SDS011;54893;49.864;19.084;2023-04-30T08:33:35;24.55;;;12.77;;
68108;SDS011;54893;49.864;19.084;2023-04-30T08:38:35;23.80;;;13.60;;
68108;SDS011;54893;49.864;19.084;2023-04-30T08:43:36;25.47;;;14.77;;
68108;SDS011;54893;49.864;19.084;2023-04-30T08:48:36;23.10;;;10.97;;
68108;SDS011;54893;49.864;19.084;2023-04-30T08:53:38;22.02;;;11.98;;
68108;SDS011;54893;49.864;19.084;2023-04-30T08:58:39;21.05;;;11.32;;
68108;SDS011;54893;49.864;19.084;2023-04-30T09:03:40;19.10;;;10.77;;
68108;SDS011;54893;49.864;19.084;2023-04-30T09:08:44;21.77;;;12.00;;
68108;SDS011;54893;49.864;19.084;2023-04-30T09:13:49;21.05;;;12.50;;
68108;SDS011;54893;49.864;19.084;2023-04-30T09:18:53;19.50;;;10.37;;
68108;SDS011;54893;49.864;19.084;2023-04-30T09:23:56;16.75;;;9.20;;
68108;SDS011;54893;49.864;19.084;2023-04-30T09:29:00;12.07;;;7.18;;
68108;SDS011;54893;49.864;19.084;2023-04-30T09:34:06;13.10;;;6.93;;
68108;SDS011;54893;49.864;19.084;2023-04-30T09:44:08;10.45;;;6.40;;
68108;SDS011;54893;49.864;19.084;2023-04-30T09:49:26;11.07;;;7.00;;
68108;SDS011;54893;49.864;19.084;2023-04-30T09:54:30;11.35;;;7.05;;
68108;SDS011;54893;49.864;19.084;2023-04-30T09:59:32;10.87;;;7.33;;
68108;SDS011;54893;49.864;19.084;2023-04-30T10:04:37;12.23;;;6.90;;
68108;SDS011;54893;49.864;19.084;2023-04-30T10:09:45;10.27;;;6.50;;
68108;SDS011;54893;49.864;19.084;2023-04-30T10:14:51;9.55;;;5.60;;
68108;SDS011;54893;49.864;19.084;2023-04-30T10:19:56;9.15;;;5.18;;
68108;SDS011;54893;49.864;19.084;2023-04-30T10:25:01;9.03;;;5.37;;
68108;SDS011;54893;49.864;19.084;2023-04-30T10:30:02;8.65;;;6.00;;
68108;SDS011;54893;49.864;19.084;2023-04-30T10:40:11;8.43;;;4.72;;
68108;SDS011;54893;49.864;19.084;2023-04-30T10:45:16;10.53;;;5.30;;
68108;SDS011;54893;49.864;19.084;2023-04-30T10:50:17;10.68;;;5.43;;
68108;SDS011;54893;49.864;19.084;2023-04-30T10:55:22;9.87;;;5.70;;
68108;SDS011;54893;49.864;19.084;2023-04-30T11:00:24;9.88;;;5.55;;
68108;SDS011;54893;49.864;19.084;2023-04-30T11:05:33;9.25;;;5.40;;
68108;SDS011;54893;49.864;19.084;2023-04-30T11:10:42;10.00;;;5.27;;
68108;SDS011;54893;49.864;19.084;2023-04-30T11:16:01;8.25;;;4.90;;
68108;SDS011;54893;49.864;19.084;2023-04-30T11:21:03;8.03;;;5.07;;
68108;SDS011;54893;49.864;19.084;2023-04-30T11:26:03;9.18;;;4.53;;
68108;SDS011;54893;49.864;19.084;2023-04-30T11:31:06;8.47;;;4.47;;
68108;SDS011;54893;49.864;19.084;2023-04-30T11:36:06;8.83;;;5.10;;
68108;SDS011;54893;49.864;19.084;2023-04-30T11:41:10;7.90;;;5.07;;
68108;SDS011;54893;49.864;19.084;2023-04-30T11:46:12;10.02;;;4.85;;
68108;SDS011;54893;49.864;19.084;2023-04-30T11:56:20;7.43;;;3.65;;
68108;SDS011;54893;49.864;19.084;2023-04-30T12:01:25;8.77;;;4.00;;
68108;SDS011;54893;49.864;19.084;2023-04-30T12:06:27;5.60;;;2.90;;
68108;SDS011;54893;49.864;19.084;2023-04-30T12:11:28;7.07;;;4.38;;
68108;SDS011;54893;49.864;19.084;2023-04-30T12:16:40;10.30;;;4.90;;
68108;SDS011;54893;49.864;19.084;2023-04-30T12:21:44;7.75;;;3.80;;
68108;SDS011;54893;49.864;19.084;2023-04-30T12:26:46;6.47;;;3.60;;
68108;SDS011;54893;49.864;19.084;2023-04-30T12:31:48;7.87;;;3.33;;
68108;SDS011;54893;49.864;19.084;2023-04-30T12:36:49;6.82;;;3.72;;
68108;SDS011;54893;49.864;19.084;2023-04-30T12:41:50;8.03;;;3.60;;
68108;SDS011;54893;49.864;19.084;2023-04-30T12:46:51;6.57;;;3.50;;
68108;SDS011;54893;49.864;19.084;2023-04-30T12:52:04;6.03;;;3.20;;
68108;SDS011;54893;49.864;19.084;2023-04-30T12:57:09;7.65;;;3.55;;
68108;SDS011;54893;49.864;19.084;2023-04-30T13:02:11;7.53;;;4.50;;
68108;SDS011;54893;49.864;19.084;2023-04-30T13:07:13;8.30;;;4.70;;
68108;SDS011;54893;49.864;19.084;2023-04-30T13:12:14;7.47;;;3.90;;
68108;SDS011;54893;49.864;19.084;2023-04-30T13:17:14;7.37;;;3.60;;
68108;SDS011;54893;49.864;19.084;2023-04-30T13:22:14;5.90;;;3.50;;
68108;SDS011;54893;49.864;19.084;2023-04-30T13:27:15;7.07;;;3.90;;
68108;SDS011;54893;49.864;19.084;2023-04-30T13:32:15;6.87;;;3.27;;
68108;SDS011;54893;49.864;19.084;2023-04-30T13:37:16;6.07;;;3.57;;
68108;SDS011;54893;49.864;19.084;2023-04-30T13:42:16;6.70;;;3.77;;
68108;SDS011;54893;49.864;19.084;2023-04-30T13:47:17;7.37;;;3.70;;
68108;SDS011;54893;49.864;19.084;2023-04-30T13:52:18;6.60;;;2.95;;
68108;SDS011;54893;49.864;19.084;2023-04-30T13:57:18;5.87;;;3.60;;
68108;SDS011;54893;49.864;19.084;2023-04-30T14:02:19;6.83;;;3.37;;
68108;SDS011;54893;49.864;19.084;2023-04-30T14:07:19;5.37;;;2.70;;
68108;SDS011;54893;49.864;19.084;2023-04-30T14:12:20;6.30;;;3.20;;
68108;SDS011;54893;49.864;19.084;2023-04-30T14:17:21;6.13;;;3.35;;
68108;SDS011;54893;49.864;19.084;2023-04-30T14:22:21;6.57;;;3.30;;
68108;SDS011;54893;49.864;19.084;2023-04-30T14:27:23;5.73;;;2.93;;
68108;SDS011;54893;49.864;19.084;2023-04-30T14:32:24;6.55;;;3.20;;
68108;SDS011;54893;49.864;19.084;2023-04-30T14:37:25;5.13;;;2.85;;
68108;SDS011;54893;49.864;19.084;2023-04-30T14:42:26;5.23;;;3.23;;
68108;SDS011;54893;49.864;19.084;2023-04-30T14:47:26;6.20;;;3.60;;
68108;SDS011;54893;49.864;19.084;2023-04-30T14:52:27;5.80;;;3.40;;
68108;SDS011;54893;49.864;19.084;2023-04-30T14:57:27;10.90;;;3.43;;
68108;SDS011;54893;49.864;19.084;2023-04-30T15:02:28;7.07;;;3.40;;
68108;SDS011;54893;49.864;19.084;2023-04-30T15:07:29;5.37;;;3.30;;
68108;SDS011;54893;49.864;19.084;2023-04-30T15:12:29;7.30;;;3.27;;
68108;SDS011;54893;49.864;19.084;2023-04-30T15:17:30;5.83;;;3.20;;
68108;SDS011;54893;49.864;19.084;2023-04-30T15:22:35;6.40;;;3.42;;
68108;SDS011;54893;49.864;19.084;2023-04-30T15:27:35;8.17;;;3.30;;
68108;SDS011;54893;49.864;19.084;2023-04-30T15:32:36;5.77;;;3.30;;
68108;SDS011;54893;49.864;19.084;2023-04-30T15:37:36;5.90;;;3.17;;
68108;SDS011;54893;49.864;19.084;2023-04-30T15:42:37;6.63;;;3.27;;
68108;SDS011;54893;49.864;19.084;2023-04-30T15:47:37;6.17;;;3.30;;
68108;SDS011;54893;49.864;19.084;2023-04-30T15:52:38;7.10;;;3.53;;
68108;SDS011;54893;49.864;19.084;2023-04-30T15:57:38;6.83;;;3.30;;
68108;SDS011;54893;49.864;19.084;2023-04-30T16:02:38;6.87;;;3.73;;
68108;SDS011;54893;49.864;19.084;2023-04-30T16:07:39;7.05;;;3.75;;
68108;SDS011;54893;49.864;19.084;2023-04-30T16:12:40;7.77;;;3.50;;
68108;SDS011;54893;49.864;19.084;2023-04-30T16:17:40;6.33;;;3.40;;
68108;SDS011;54893;49.864;19.084;2023-04-30T16:22:41;11.23;;;5.83;;
68108;SDS011;54893;49.864;19.084;2023-04-30T16:27:41;6.67;;;3.63;;
68108;SDS011;54893;49.864;19.084;2023-04-30T16:32:45;6.63;;;3.63;;
68108;SDS011;54893;49.864;19.084;2023-04-30T16:37:45;8.20;;;4.70;;
68108;SDS011;54893;49.864;19.084;2023-04-30T16:42:45;11.20;;;4.80;;
68108;SDS011;54893;49.864;19.084;2023-04-30T16:47:46;9.80;;;5.77;;
68108;SDS011;54893;49.864;19.084;2023-04-30T16:52:47;13.68;;;9.10;;
68108;SDS011;54893;49.864;19.084;2023-04-30T16:57:47;25.17;;;14.57;;
68108;SDS011;54893;49.864;19.084;2023-04-30T17:02:49;11.17;;;6.60;;
68108;SDS011;54893;49.864;19.084;2023-04-30T17:07:51;9.57;;;3.97;;
68108;SDS011;54893;49.864;19.084;2023-04-30T17:12:52;6.00;;;3.40;;
68108;SDS011;54893;49.864;19.084;2023-04-30T17:17:52;6.97;;;3.10;;
68108;SDS011;54893;49.864;19.084;2023-04-30T17:22:52;8.83;;;3.00;;
68108;SDS011;54893;49.864;19.084;2023-04-30T17:27:54;15.13;;;7.13;;
68108;SDS011;54893;49.864;19.084;2023-04-30T17:32:55;14.50;;;5.97;;
68108;SDS011;54893;49.864;19.084;2023-04-30T17:37:55;46.60;;;25.63;;
68108;SDS011;54893;49.864;19.084;2023-04-30T17:42:56;40.00;;;25.00;;
68108;SDS011;54893;49.864;19.084;2023-04-30T17:47:56;32.47;;;9.73;;
68108;SDS011;54893;49.864;19.084;2023-04-30T17:52:56;35.67;;;16.37;;
68108;SDS011;54893;49.864;19.084;2023-04-30T17:57:57;16.13;;;5.90;;
68108;SDS011;54893;49.864;19.084;2023-04-30T18:02:58;14.40;;;7.07;;
68108;SDS011;54893;49.864;19.084;2023-04-30T18:07:58;12.53;;;6.33;;
68108;SDS011;54893;49.864;19.084;2023-04-30T18:12:59;15.03;;;6.90;;
68108;SDS011;54893;49.864;19.084;2023-04-30T18:17:59;44.22;;;13.00;;
68108;SDS011;54893;49.864;19.084;2023-04-30T18:23:00;23.67;;;9.23;;
68108;SDS011;54893;49.864;19.084;2023-04-30T18:28:00;18.77;;;9.10;;
68108;SDS011;54893;49.864;19.084;2023-04-30T18:33:01;16.17;;;7.70;;
68108;SDS011;54893;49.864;19.084;2023-04-30T18:38:03;12.50;;;5.10;;
68108;SDS011;54893;49.864;19.084;2023-04-30T18:43:06;21.73;;;7.82;;
68108;SDS011;54893;49.864;19.084;2023-04-30T18:48:07;30.23;;;9.53;;
68108;SDS011;54893;49.864;19.084;2023-04-30T18:53:07;35.03;;;10.63;;
68108;SDS011;54893;49.864;19.084;2023-04-30T18:58:08;46.43;;;15.03;;
68108;SDS011;54893;49.864;19.084;2023-04-30T19:03:08;21.75;;;9.40;;
68108;SDS011;54893;49.864;19.084;2023-04-30T19:08:09;13.93;;;6.55;;
68108;SDS011;54893;49.864;19.084;2023-04-30T19:13:09;18.52;;;8.18;;
68108;SDS011;54893;49.864;19.084;2023-04-30T19:18:10;18.70;;;8.20;;
68108;SDS011;54893;49.864;19.084;2023-04-30T19:23:11;18.67;;;8.03;;
68108;SDS011;54893;49.864;19.084;2023-04-30T19:28:12;47.80;;;16.00;;
68108;SDS011;54893;49.864;19.084;2023-04-30T19:33:14;18.77;;;6.63;;
68108;SDS011;54893;49.864;19.084;2023-04-30T19:38:14;12.87;;;5.43;;
68108;SDS011;54893;49.864;19.084;2023-04-30T19:43:15;27.70;;;10.13;;
68108;SDS011;54893;49.864;19.084;2023-04-30T19:48:15;47.53;;;14.30;;
68108;SDS011;54893;49.864;19.084;2023-04-30T19:53:16;36.43;;;11.97;;
68108;SDS011;54893;49.864;19.084;2023-04-30T19:58:17;24.83;;;9.03;;
68108;SDS011;54893;49.864;19.084;2023-04-30T20:03:17;26.88;;;8.68;;
68108;SDS011;54893;49.864;19.084;2023-04-30T20:08:19;23.37;;;8.63;;
68108;SDS011;54893;49.864;19.084;2023-04-30T20:13:20;26.80;;;9.25;;
68108;SDS011;54893;49.864;19.084;2023-04-30T20:18:23;27.03;;;11.87;;
68108;SDS011;54893;49.864;19.084;2023-04-30T20:23:23;39.27;;;13.07;;
68108;SDS011;54893;49.864;19.084;2023-04-30T20:28:24;36.17;;;15.13;;
68108;SDS011;54893;49.864;19.084;2023-04-30T20:33:24;30.70;;;13.03;;
68108;SDS011;54893;49.864;19.084;2023-04-30T20:38:25;35.70;;;13.30;;
68108;SDS011;54893;49.864;19.084;2023-04-30T20:43:25;35.83;;;13.53;;
68108;SDS011;54893;49.864;19.084;2023-04-30T20:48:26;30.07;;;13.40;;
68108;SDS011;54893;49.864;19.084;2023-04-30T20:53:26;29.43;;;11.87;;
68108;SDS011;54893;49.864;19.084;2023-04-30T20:58:27;26.43;;;10.47;;
68108;SDS011;54893;49.864;19.084;2023-04-30T21:03:27;28.60;;;10.60;;
68108;SDS011;54893;49.864;19.084;2023-04-30T21:08:28;27.67;;;10.73;;
68108;SDS011;54893;49.864;19.084;2023-04-30T21:13:28;27.90;;;10.27;;
68108;SDS011;54893;49.864;19.084;2023-04-30T21:18:30;31.13;;;10.95;;
68108;SDS011;54893;49.864;19.084;2023-04-30T21:23:31;31.90;;;11.57;;
68108;SDS011;54893;49.864;19.084;2023-04-30T21:28:33;32.03;;;11.60;;
68108;SDS011;54893;49.864;19.084;2023-04-30T21:33:34;25.43;;;10.53;;
68108;SDS011;54893;49.864;19.084;2023-04-30T21:38:35;28.20;;;10.30;;
68108;SDS011;54893;49.864;19.084;2023-04-30T21:43:36;34.83;;;11.27;;
68108;SDS011;54893;49.864;19.084;2023-04-30T21:48:37;23.67;;;9.20;;
68108;SDS011;54893;49.864;19.084;2023-04-30T21:53:37;24.50;;;8.80;;
68108;SDS011;54893;49.864;19.084;2023-04-30T21:58:38;26.33;;;9.27;;
68108;SDS011;54893;49.864;19.084;2023-04-30T22:03:40;25.80;;;9.67;;
68108;SDS011;54893;49.864;19.084;2023-04-30T22:08:40;24.67;;;8.87;;
68108;SDS011;54893;49.864;19.084;2023-04-30T22:13:41;24.02;;;10.50;;
68108;SDS011;54893;49.864;19.084;2023-04-30T22:18:41;25.35;;;10.93;;
68108;SDS011;54893;49.864;19.084;2023-04-30T22:23:42;19.17;;;7.40;;
68108;SDS011;54893;49.864;19.084;2023-04-30T22:28:42;18.17;;;6.60;;
68108;SDS011;54893;49.864;19.084;2023-04-30T22:33:42;28.00;;;9.75;;
68108;SDS011;54893;49.864;19.084;2023-04-30T22:38:43;25.53;;;9.80;;
68108;SDS011;54893;49.864;19.084;2023-04-30T22:43:44;31.27;;;11.07;;
68108;SDS011;54893;49.864;19.084;2023-04-30T22:48:46;28.17;;;11.23;;
68108;SDS011;54893;49.864;19.084;2023-04-30T22:53:46;32.72;;;12.23;;
68108;SDS011;54893;49.864;19.084;2023-04-30T22:58:47;38.87;;;13.67;;
68108;SDS011;54893;49.864;19.084;2023-04-30T23:03:47;31.60;;;10.10;;
68108;SDS011;54893;49.864;19.084;2023-04-30T23:08:48;25.53;;;9.03;;
68108;SDS011;54893;49.864;19.084;2023-04-30T23:13:49;27.70;;;9.90;;
68108;SDS011;54893;49.864;19.084;2023-04-30T23:18:49;31.57;;;11.07;;
68108;SDS011;54893;49.864;19.084;2023-04-30T23:23:50;31.83;;;11.98;;
68108;SDS011;54893;49.864;19.084;2023-04-30T23:28:50;31.17;;;11.63;;
68108;SDS011;54893;49.864;19.084;2023-04-30T23:33:50;30.60;;;11.90;;
68108;SDS011;54893;49.864;19.084;2023-04-30T23:38:52;28.63;;;9.97;;
68108;SDS011;54893;49.864;19.084;2023-04-30T23:43:52;24.83;;;10.00;;
68108;SDS011;54893;49.864;19.084;2023-04-30T23:48:53;22.17;;;9.07;;
68108;SDS011;54893;49.864;19.084;2023-04-30T23:53:53;23.67;;;9.20;;
68108;SDS011;54893;49.864;19.084;2023-04-30T23:58:53;24.27;;;8.97;;
